首页
METAR-TAF:

METAR-TAF

机场 :

Kapuskasing, 安大略省, 加拿大

纬度: 49-25N, 经度: 082-28W, 海拔: 227米

当前天气观测

该预报发布于46分钟前的19:22 UTC
风速15节,风向,在西转西北北转东北之间变化
温度 14°C
湿度 77%
气压 1020 hPa
能見度: 12.9公里
散云层高于2000英尺
多云层高于3300英尺
多云层高于5600英尺
小雨

METAR: CYYU 031922Z 35015KT 300V030 8SM -RA SCT020 BKN033 BKN056 14/10 A3012 RMK SC3SC2SC2 WSHFT 1913 SLP209

时间: 16:08 (20:08 UTC)

预报

该预报发布于30分钟前的19:38 UTC
预报有效从03日的 20点(UTC)到 04日的 08点(UTC)
风速12节,风向
能見度: 10公里
散云层高于2000英尺
多云层高于4000英尺
短暂存在
从 03日的 20点(UTC)到 04日的 02点(UTC)
能見度: 8.0公里
多云层高于2000英尺
阴天层高于4000英尺
小阵雨, 轻雾
从 04日的 0200点(UTC)
风速5节,风向北转东北
能見度: 10公里
散云层高于2000英尺
多云层高于4000英尺
短暂存在
从 04日的 02点(UTC)到 04日的 08点(UTC)
多云层高于2000英尺
阴天层高于4000英尺

TAF: CYYU 031938Z 0320/0408 35012KT P6SM SCT020 BKN040 TEMPO 0320/0402 5SM -SHRA BR BKN020 OVC040 FM040200 02005KT P6SM SCT020 BKN040 TEMPO 0402/0408 BKN020 OVC040 RMK NXT FCST BY 040200Z

超过4000个机场的气象观测和天气预报(METAR&TAF报告)。

可查询的气象台以黄色和红色小点在地图上表示。

将鼠标移到小点上方,可查看气象台名称。

然后点击查看天气观测和预报。

如需切换地图:点击带黑十字的绿色按钮放大地图;点击带横线的绿色按钮缩小地图;或者点击绿色箭头查看邻近地区的地图。


METAR-TAF: